Time;durP1;ratioP1;P1;durP2;ratioP2;P2;SDS_P1;SDS_P2;PMS_P1;PMS_P2;Temp;Humidity;BMP_temperature;BMP_pressure;BME280_temperature;BME280_humidity;BME280_pressure;Samples;Min_cycle;Max_cycle;Signal;HPM_P1;HPM_P2
2022/03/08 00:00:44;;;;;;;12.68;6.45;;;-1.10;99.90;;;-2.83;92.38;102297.88;4952637;28;21975;-73
2022/03/08 00:03:10;;;;;;;14.40;6.38;;;-1.10;99.90;;;-2.84;92.45;102296.09;4951219;28;20480;-74
2022/03/08 00:05:36;;;;;;;15.75;6.38;;;-1.10;99.90;;;-2.83;92.56;102297.88;4951714;28;20035;-74
2022/03/08 00:08:02;;;;;;;14.65;6.82;;;-1.10;99.90;;;-2.83;93.06;102287.56;4960199;28;20523;-73
2022/03/08 00:10:28;;;;;;;13.75;5.97;;;-1.10;99.90;;;-2.83;92.69;102291.81;4952379;28;20395;-73
2022/03/08 00:12:54;;;;;;;13.90;6.88;;;-1.10;99.90;;;-2.85;92.54;102294.34;4949922;28;20027;-73
2022/03/08 00:15:25;;;;;;;17.77;6.78;;;-1.20;99.90;;;-2.87;93.01;102288.28;4936717;28;20076;-73
2022/03/08 00:17:52;;;;;;;17.92;6.47;;;-1.20;99.90;;;-2.86;92.76;102282.28;4950723;28;20027;-73
2022/03/08 00:20:20;;;;;;;15.63;6.15;;;-1.10;99.90;;;-2.84;93.55;102285.78;4952075;28;20089;-74
2022/03/08 00:22:47;;;;;;;12.48;5.97;;;-1.20;99.90;;;-2.86;93.18;102284.84;4933987;28;20066;-73
2022/03/08 00:25:13;;;;;;;13.23;6.20;;;-1.20;99.90;;;-2.87;92.91;102290.84;4949950;28;20102;-73
2022/03/08 00:27:47;;;;;;;15.95;6.50;;;-1.20;99.90;;;-2.86;93.16;102286.56;4949653;28;20038;-73
2022/03/08 00:30:23;;;;;;;11.73;6.50;;;-1.20;99.90;;;-2.87;92.94;102290.84;4942810;28;20043;-74
2022/03/08 00:32:52;;;;;;;13.00;6.53;;;-1.20;99.90;;;-2.88;93.29;102286.50;4951586;28;20033;-74
2022/03/08 00:35:21;;;;;;;17.20;6.95;;;-1.20;99.90;;;-2.88;93.66;102289.06;4954509;28;20019;-73
2022/03/08 00:37:49;;;;;;;17.27;7.05;;;-1.20;99.90;;;-2.86;93.75;102281.41;4949413;28;20046;-73
2022/03/08 00:40:19;;;;;;;15.18;6.78;;;-1.20;99.90;;;-2.85;94.16;102284.03;4951747;28;20114;-74
2022/03/08 00:42:46;;;;;;;18.08;7.20;;;-1.20;99.90;;;-2.84;94.19;102284.91;4950768;28;20267;-73
2022/03/08 00:45:13;;;;;;;17.08;7.60;;;-1.20;99.90;;;-2.84;94.15;102284.91;4934403;28;20023;-74
2022/03/08 00:47:41;;;;;;;12.70;6.50;;;-1.20;99.90;;;-2.85;94.14;102289.19;4953965;28;20034;-74
2022/03/08 00:50:12;;;;;;;14.57;7.07;;;-1.20;99.90;;;-2.86;93.97;102284.84;4950816;28;20428;-73
2022/03/08 00:52:38;;;;;;;13.98;6.57;;;-1.20;99.90;;;-2.88;93.70;102283.91;4950770;28;20554;-73
2022/03/08 00:55:07;;;;;;;18.58;6.75;;;-1.20;99.90;;;-2.88;93.86;102277.06;4950989;28;20056;-73
2022/03/08 00:57:33;;;;;;;15.30;6.93;;;-1.20;99.90;;;-2.89;94.49;102271.88;4948357;28;20081;-73
2022/03/08 00:59:59;;;;;;;18.67;7.43;;;-1.20;99.90;;;-2.90;94.61;102270.97;4975491;28;20035;-73
2022/03/08 01:02:25;;;;;;;15.13;6.97;;;-1.20;99.90;;;-2.90;94.69;102273.56;4952964;28;20426;-73
2022/03/08 01:04:51;;;;;;;15.52;7.05;;;-1.20;99.90;;;-2.89;94.48;102265.00;4941627;28;20467;-73
2022/03/08 01:07:18;;;;;;;16.75;7.57;;;-1.20;99.90;;;-2.89;94.60;102271.88;4951155;28;20053;-73
2022/03/08 01:09:44;;;;;;;17.42;7.53;;;-1.20;99.90;;;-2.89;95.36;102271.88;4949357;28;20066;-74
2022/03/08 01:12:10;;;;;;;16.35;6.97;;;-1.20;99.90;;;-2.89;94.80;102269.28;4952630;28;20166;-73
2022/03/08 01:14:36;;;;;;;13.50;6.97;;;-1.20;99.90;;;-2.92;95.54;102271.75;4933990;28;20039;-73
2022/03/08 01:17:04;;;;;;;15.35;6.90;;;-1.30;99.90;;;-2.98;94.98;102269.88;4960219;28;20110;-72
2022/03/08 01:19:30;;;;;;;17.58;6.43;;;-1.30;99.90;;;-3.05;95.59;102262.72;4956327;28;20807;-73
2022/03/08 01:21:56;;;;;;;18.10;6.20;;;-1.30;99.90;;;-3.07;95.33;102266.94;4951294;28;20155;-73
2022/03/08 01:24:22;;;;;;;14.05;5.60;;;-1.40;99.90;;;-3.11;95.37;102255.69;4951275;28;20069;-72
2022/03/08 01:26:48;;;;;;;11.15;5.63;;;-1.40;99.90;;;-3.13;94.91;102253.88;4953395;28;20407;-73
2022/03/08 01:29:14;;;;;;;12.75;6.32;;;-1.40;99.90;;;-3.14;94.99;102260.72;4947959;28;20035;-72
2022/03/08 01:31:40;;;;;;;14.55;6.35;;;-1.50;99.90;;;-3.18;94.99;102258.84;4953068;28;20094;-73
2022/03/08 01:34:06;;;;;;;13.27;6.20;;;-1.50;99.90;;;-3.21;95.44;102255.31;4947988;28;20114;-72
2022/03/08 01:36:32;;;;;;;12.90;5.55;;;-1.50;99.90;;;-3.22;94.69;102259.56;4949950;28;20041;-73
2022/03/08 01:38:58;;;;;;;12.75;6.22;;;-1.50;99.90;;;-3.23;94.90;102255.25;4949235;28;20035;-73
2022/03/08 01:41:24;;;;;;;12.18;6.22;;;-1.50;99.90;;;-3.25;95.40;102259.47;4949372;28;20109;-73
2022/03/08 01:43:50;;;;;;;14.70;6.45;;;-1.60;99.90;;;-3.26;95.14;102255.16;4949386;28;20038;-73
2022/03/08 01:46:17;;;;;;;15.23;6.65;;;-1.60;99.90;;;-3.27;95.51;102260.25;4953055;28;20050;-73
2022/03/08 01:48:43;;;;;;;13.00;6.45;;;-1.60;99.90;;;-3.27;95.37;102253.41;4948894;28;20026;-73
2022/03/08 01:51:09;;;;;;;13.63;6.53;;;-1.60;99.90;;;-3.28;95.48;102259.38;4950790;28;20106;-73
2022/03/08 01:53:39;;;;;;;20.58;6.70;;;-1.60;99.90;;;-3.29;96.04;102252.47;4948742;28;20026;-73
2022/03/08 01:56:08;;;;;;;17.20;6.82;;;-1.60;99.90;;;-3.27;96.16;102248.25;4933742;28;20102;-73
2022/03/08 01:58:37;;;;;;;18.33;7.28;;;-1.60;99.90;;;-3.24;96.57;102252.63;4948393;28;20511;-73
2022/03/08 02:01:04;;;;;;;16.92;7.35;;;-1.60;99.90;;;-3.24;96.83;102250.94;4942278;28;20041;-72
2022/03/08 02:03:31;;;;;;;18.67;7.82;;;-1.50;99.90;;;-3.24;96.61;102245.78;4947918;28;20674;-73
2022/03/08 02:05:57;;;;;;;16.33;7.05;;;-1.60;99.90;;;-3.24;97.21;102248.38;4950474;28;20027;-72
2022/03/08 02:08:24;;;;;;;18.60;8.13;;;-1.60;99.90;;;-3.24;96.84;102248.38;4951919;28;20031;-72
2022/03/08 02:10:53;;;;;;;15.10;7.15;;;-1.60;99.90;;;-3.24;97.22;102247.47;4949169;28;20085;-72
2022/03/08 02:13:20;;;;;;;16.55;7.70;;;-1.60;99.90;;;-3.26;96.99;102239.72;4941349;28;20511;-72
2022/03/08 02:15:51;;;;;;;14.95;7.35;;;-1.60;99.90;;;-3.28;97.26;102236.19;4952409;28;20862;-72
2022/03/08 02:18:19;;;;;;;17.63;7.22;;;-1.60;99.90;;;-3.29;97.46;102239.59;4950497;28;21049;-72
2022/03/08 02:20:46;;;;;;;16.75;6.88;;;-1.60;99.90;;;-3.31;97.85;102239.53;4949766;28;20157;-72
2022/03/08 02:23:13;;;;;;;16.88;7.25;;;-1.60;99.90;;;-3.31;97.64;102238.66;4951330;28;20027;-72
2022/03/08 02:25:41;;;;;;;14.63;7.45;;;-1.60;99.90;;;-3.33;98.02;102240.28;4958593;28;20094;-72
2022/03/08 02:28:08;;;;;;;20.35;7.68;;;-1.60;99.90;;;-3.36;97.57;102241.06;4948693;28;20091;-72
2022/03/08 02:30:34;;;;;;;18.08;8.23;;;-1.60;99.90;;;-3.37;97.86;102235.84;4951422;28;20023;-72
2022/03/08 02:33:00;;;;;;;19.00;8.85;;;-1.60;99.90;;;-3.34;98.66;102218.81;4932727;28;20368;-72
2022/03/08 02:35:29;;;;;;;24.60;10.70;;;-1.60;99.90;;;-3.27;99.36;102227.63;4948038;28;20487;-73
2022/03/08 02:38:02;;;;;;;19.75;9.50;;;-1.50;99.90;;;-3.21;100.00;102232.13;4933834;28;20121;-73
2022/03/08 02:40:36;;;;;;;21.65;9.68;;;-1.50;99.90;;;-3.20;100.00;102239.88;4947980;28;20031;-72
2022/03/08 02:43:05;;;;;;;23.10;10.65;;;-1.50;99.90;;;-3.19;100.00;102231.34;4932238;28;20443;-72
2022/03/08 02:45:31;;;;;;;20.25;9.65;;;-1.50;99.90;;;-3.20;100.00;102234.75;4950071;28;20025;-72
2022/03/08 02:47:57;;;;;;;15.57;8.45;;;-1.50;99.90;;;-3.22;100.00;102233.81;4951495;28;20117;-72
2022/03/08 02:50:24;;;;;;;19.63;8.98;;;-1.50;99.90;;;-3.21;100.00;102230.44;4949937;28;20121;-71
2022/03/08 02:52:54;;;;;;;18.65;8.73;;;-1.50;99.90;;;-3.23;100.00;102234.66;4950827;28;20038;-72
2022/03/08 02:55:24;;;;;;;24.10;9.27;;;-1.50;99.90;;;-3.23;100.00;102237.22;4938251;28;20039;-72
2022/03/08 02:57:52;;;;;;;20.77;9.23;;;-1.60;99.90;;;-3.27;99.77;102231.91;4954784;28;20100;-72
2022/03/08 03:00:19;;;;;;;16.67;8.82;;;-1.60;99.90;;;-3.31;100.00;102234.38;4959596;28;20125;-71
2022/03/08 03:02:46;;;;;;;17.55;8.30;;;-1.60;99.90;;;-3.34;99.65;102230.84;4975591;28;20035;-72
2022/03/08 03:05:13;;;;;;;18.65;9.27;;;-1.60;99.90;;;-3.38;99.74;102224.69;4952476;28;20039;-71
2022/03/08 03:07:41;;;;;;;22.60;8.50;;;-1.70;99.90;;;-3.40;99.87;102225.47;4950069;28;20023;-72
2022/03/08 03:10:19;;;;;;;22.25;8.52;;;-1.30;99.90;;;-3.47;100.00;102229.53;4956412;28;20027;-72
2022/03/08 03:12:46;;;;;;;17.95;7.28;;;-1.80;99.90;;;-3.55;99.55;102230.94;4974153;28;20031;-72
2022/03/08 03:15:14;;;;;;;14.13;7.35;;;-1.80;99.90;;;-3.61;99.01;102231.59;4955310;28;20031;-71
2022/03/08 03:17:41;;;;;;;19.00;7.43;;;-1.90;99.90;;;-3.67;98.82;102226.25;4951887;28;20090;-72
2022/03/08 03:20:14;;;;;;;17.67;6.88;;;-1.90;99.90;;;-3.71;99.30;102232.97;4952636;28;20074;-72
2022/03/08 03:22:40;;;;;;;18.90;8.57;;;-2.00;99.90;;;-3.74;99.25;102231.97;4952796;28;20042;-72
2022/03/08 03:25:08;;;;;;;13.52;6.90;;;-2.00;99.90;;;-3.78;98.96;102233.59;4953180;28;23595;-73
2022/03/08 03:27:35;;;;;;;16.35;7.00;;;-2.00;99.90;;;-3.80;98.55;102229.19;4952266;28;20684;-72
2022/03/08 03:30:02;;;;;;;16.65;7.10;;;-2.10;99.90;;;-3.85;98.32;102230.72;4954064;28;20039;-73
2022/03/08 03:32:29;;;;;;;19.25;8.05;;;-2.10;99.90;;;-3.90;98.10;102238.28;4951986;28;20030;-71
2022/03/08 03:34:55;;;;;;;18.30;8.63;;;-2.10;99.90;;;-3.92;98.93;102227.91;4952252;28;20077;-72
2022/03/08 03:37:21;;;;;;;16.35;8.07;;;-2.10;99.90;;;-3.90;98.37;102230.56;4952461;28;20105;-72
2022/03/08 03:39:47;;;;;;;22.02;9.25;;;-2.10;99.90;;;-3.89;98.79;102234.00;4944745;28;20050;-72
2022/03/08 03:42:13;;;;;;;22.88;9.00;;;-2.10;99.90;;;-3.87;98.76;102232.38;4942876;28;20205;-71
2022/03/08 03:44:39;;;;;;;23.73;9.43;;;-2.10;99.90;;;-3.88;99.04;102228.06;4951230;28;20039;-72
2022/03/08 03:47:05;;;;;;;23.77;8.38;;;-2.20;99.90;;;-3.89;99.01;102227.16;4953572;28;21679;-71
2022/03/08 03:49:31;;;;;;;20.00;8.48;;;-2.20;99.90;;;-3.90;99.48;102219.41;4954543;28;20023;-72
2022/03/08 03:51:57;;;;;;;18.05;8.23;;;-2.20;99.90;;;-3.93;98.88;102226.19;4949671;28;20114;-71
2022/03/08 03:54:24;;;;;;;16.63;7.82;;;-2.20;99.90;;;-3.96;98.97;102218.34;4936231;28;20049;-72
2022/03/08 03:56:50;;;;;;;18.20;7.68;;;-2.20;99.90;;;-4.00;99.58;102216.47;4951677;28;20130;-71
2022/03/08 03:59:17;;;;;;;20.38;7.75;;;-2.30;99.90;;;-4.03;99.19;102225.78;4952715;28;20039;-72
2022/03/08 04:01:43;;;;;;;21.65;9.73;;;-2.30;99.90;;;-4.07;98.89;102211.91;4950986;28;20224;-71
2022/03/08 04:04:09;;;;;;;21.17;9.02;;;-2.30;99.90;;;-4.07;99.18;102213.63;4949993;28;20114;-71
2022/03/08 04:06:35;;;;;;;23.13;8.77;;;-2.30;99.90;;;-4.08;99.44;102212.75;4951906;28;20133;-71
2022/03/08 04:09:04;;;;;;;23.35;9.40;;;-2.30;99.90;;;-4.09;98.71;102213.56;4935030;28;20039;-72
2022/03/08 04:11:31;;;;;;;22.42;9.98;;;-2.40;99.90;;;-4.10;99.28;102216.97;4953329;28;20031;-72
2022/03/08 04:13:58;;;;;;;25.33;10.23;;;-2.40;99.90;;;-4.10;99.22;102222.13;4952991;28;20111;-72
2022/03/08 04:16:24;;;;;;;24.85;10.32;;;-2.40;99.90;;;-4.10;99.69;102219.53;4934909;28;20035;-72
2022/03/08 04:18:50;;;;;;;18.73;10.05;;;-2.40;99.90;;;-4.08;99.66;102232.44;4952301;28;20047;-72
2022/03/08 04:21:16;;;;;;;20.63;9.57;;;-2.30;99.90;;;-4.08;99.72;102237.59;4950635;28;20026;-72
2022/03/08 04:23:42;;;;;;;24.42;11.50;;;-2.30;99.90;;;-4.08;100.00;102233.34;4953463;28;20087;-71
2022/03/08 04:26:08;;;;;;;28.77;12.13;;;-2.40;99.90;;;-4.05;100.00;102230.88;4952757;28;20027;-72
2022/03/08 04:28:34;;;;;;;33.33;12.23;;;-2.30;99.90;;;-4.00;100.00;102244.78;4952369;28;20062;-71
2022/03/08 04:31:00;;;;;;;31.95;13.77;;;-2.30;99.90;;;-3.97;100.00;102239.75;4947907;28;20130;-72
2022/03/08 04:33:26;;;;;;;31.27;14.02;;;-2.20;99.90;;;-3.89;100.00;102244.28;4951085;28;20146;-71
2022/03/08 04:35:52;;;;;;;32.97;14.35;;;-2.10;99.90;;;-3.85;100.00;102241.03;4950208;28;20111;-71
2022/03/08 04:38:18;;;;;;;40.75;16.23;;;-2.10;99.90;;;-3.83;100.00;102244.53;4935509;28;20015;-71
2022/03/08 04:40:44;;;;;;;36.83;15.45;;;-2.10;99.90;;;-3.81;100.00;102253.19;4958039;28;20034;-72
2022/03/08 04:43:10;;;;;;;41.92;16.63;;;-2.10;99.90;;;-3.81;100.00;102255.75;4943911;28;20073;-71
2022/03/08 04:45:36;;;;;;;42.97;16.42;;;-2.10;99.90;;;-3.82;100.00;102254.88;4973580;28;20515;-71
2022/03/08 04:48:02;;;;;;;36.72;16.83;;;-2.10;99.90;;;-3.81;100.00;102259.19;4952553;28;20027;-71
2022/03/08 04:50:28;;;;;;;44.63;18.73;;;-2.10;99.90;;;-3.79;100.00;102259.28;4934012;28;20027;-71
2022/03/08 04:52:55;;;;;;;45.67;17.88;;;-2.00;99.90;;;-3.78;100.00;102254.19;4953286;28;20137;-72
2022/03/08 04:55:21;;;;;;;46.83;18.80;;;-2.00;99.90;;;-3.77;100.00;102255.91;4949408;28;20023;-71
2022/03/08 04:57:48;;;;;;;52.92;20.80;;;-2.00;99.90;;;-3.77;100.00;102265.34;4950826;28;20019;-71
2022/03/08 05:00:16;;;;;;;64.57;20.95;;;-2.10;99.90;;;-3.78;100.00;102256.75;4949787;28;20738;-71
2022/03/08 05:02:44;;;;;;;54.97;22.08;;;-2.00;99.90;;;-3.76;100.00;102249.06;4942202;28;20395;-71
2022/03/08 05:05:13;;;;;;;55.78;20.65;;;-2.00;99.90;;;-3.72;100.00;102251.81;4949600;28;20093;-71
2022/03/08 05:07:40;;;;;;;53.15;20.08;;;-2.00;99.90;;;-3.71;100.00;102244.97;4951486;28;20054;-71
2022/03/08 05:10:09;;;;;;;49.75;20.25;;;-2.00;99.90;;;-3.74;100.00;102239.72;4949605;28;20023;-71
2022/03/08 05:12:37;;;;;;;55.75;21.20;;;-2.00;99.90;;;-3.75;100.00;102238.84;4948849;28;20046;-71
2022/03/08 05:15:08;;;;;;;50.50;21.17;;;-2.00;99.90;;;-3.78;100.00;102236.16;4950493;28;20526;-70
2022/03/08 05:17:35;;;;;;;47.83;19.30;;;-2.20;99.90;;;-3.82;100.00;102234.28;4951122;28;20027;-72
2022/03/08 05:20:03;;;;;;;46.78;19.92;;;-2.10;99.90;;;-3.85;100.00;102233.31;4950542;28;21418;-71
2022/03/08 05:22:29;;;;;;;56.65;20.70;;;-2.10;99.90;;;-3.86;100.00;102234.13;4949401;28;20036;-71
2022/03/08 05:24:55;;;;;;;45.53;18.85;;;-2.10;99.90;;;-3.89;100.00;102234.00;4951415;28;20086;-71
2022/03/08 05:27:21;;;;;;;50.83;21.08;;;-2.20;99.90;;;-3.92;100.00;102243.38;4949560;28;21808;-71
2022/03/08 05:29:47;;;;;;;51.80;20.42;;;-2.20;99.90;;;-3.94;100.00;102232.13;4950567;28;20027;-70
2022/03/08 05:32:14;;;;;;;46.90;20.20;;;-2.20;99.90;;;-3.95;100.00;102230.41;4951427;28;20035;-71
2022/03/08 05:34:40;;;;;;;59.75;23.08;;;-2.20;99.90;;;-3.94;100.00;102227.00;4951770;28;20051;-70
2022/03/08 05:37:06;;;;;;;61.97;22.25;;;-2.20;99.90;;;-3.90;100.00;102225.41;4953118;28;21238;-71
2022/03/08 05:39:32;;;;;;;53.97;21.85;;;-2.20;99.90;;;-3.86;100.00;102223.84;4974045;28;20043;-71
2022/03/08 05:41:58;;;;;;;51.13;20.83;;;-2.20;99.90;;;-3.83;100.00;102226.50;4951878;28;20051;-71
2022/03/08 05:44:24;;;;;;;57.72;21.15;;;-2.10;99.90;;;-3.82;100.00;102226.56;4973412;28;20042;-71
2022/03/08 05:46:50;;;;;;;56.50;21.27;;;-2.10;99.90;;;-3.81;100.00;102228.31;4950536;28;20042;-71
2022/03/08 05:49:17;;;;;;;59.28;21.45;;;-2.10;99.90;;;-3.81;100.00;102222.28;4933842;28;20049;-72
2022/03/08 05:51:43;;;;;;;59.25;21.77;;;-2.10;99.90;;;-3.78;100.00;102227.53;4950750;28;20112;-71
2022/03/08 05:54:10;;;;;;;58.72;21.10;;;-2.10;99.90;;;-3.74;100.00;102221.69;4951386;28;20586;-71
2022/03/08 05:56:36;;;;;;;55.25;21.38;;;-2.10;99.90;;;-3.74;100.00;102226.84;4950194;28;20030;-71
2022/03/08 05:59:03;;;;;;;66.47;23.13;;;-2.10;99.90;;;-3.69;100.00;102240.78;4948940;28;20411;-71
2022/03/08 06:01:30;;;;;;;70.72;23.42;;;-2.10;99.90;;;-3.65;100.00;102245.22;4951096;28;20031;-72
2022/03/08 06:03:56;;;;;;;51.15;21.15;;;-2.00;99.90;;;-3.67;100.00;102236.56;4948664;28;20407;-71
2022/03/08 06:06:22;;;;;;;58.95;23.52;;;-2.00;99.90;;;-3.59;100.00;102244.53;4931870;28;20047;-71
2022/03/08 06:08:49;;;;;;;45.70;20.35;;;-1.90;99.90;;;-3.38;100.00;102247.88;4949658;28;20109;-71
2022/03/08 06:11:16;;;;;;;44.60;19.38;;;-1.80;99.90;;;-3.24;100.00;102247.47;4949540;28;20039;-71
2022/03/08 06:13:42;;;;;;;42.22;17.40;;;-1.70;99.90;;;-3.14;100.00;102242.69;4949046;28;20077;-71
2022/03/08 06:16:08;;;;;;;48.00;17.67;;;-1.70;99.90;;;-1.83;100.00;102240.75;4949074;28;20173;-71
2022/03/08 06:18:34;;;;;;;47.95;18.73;;;-1.20;99.90;;;0.18;100.00;102237.91;4951997;28;20081;-71
2022/03/08 06:21:00;;;;;;;48.50;20.17;;;-0.80;99.90;;;0.31;100.00;102247.66;4950164;28;20039;-71
2022/03/08 06:23:26;;;;;;;51.05;19.70;;;-0.20;99.90;;;2.96;94.68;102244.59;4932683;28;20546;-71
2022/03/08 06:25:52;;;;;;;38.17;18.15;;;0.80;99.90;;;5.76;85.11;102243.78;4952078;28;20035;-72
2022/03/08 06:28:19;;;;;;;36.33;15.68;;;1.90;99.90;;;8.18;72.85;102227.19;4951668;28;20041;-71
2022/03/08 06:30:45;;;;;;;29.83;13.80;;;3.10;99.90;;;7.81;64.31;102226.75;4956396;28;20050;-71
2022/03/08 06:33:11;;;;;;;28.48;12.73;;;3.80;99.90;;;5.76;64.64;102251.63;4941909;28;20031;-72
2022/03/08 06:35:37;;;;;;;38.50;14.85;;;4.00;99.90;;;5.46;65.79;102243.84;4954682;28;20033;-72
2022/03/08 06:38:03;;;;;;;47.47;16.73;;;4.10;99.90;;;6.46;64.82;102244.47;4951535;28;20027;-72
2022/03/08 06:40:30;;;;;;;37.70;15.82;;;4.50;99.90;;;10.57;59.01;102249.41;4956103;28;20039;-72
2022/03/08 06:42:55;;;;;;;30.50;14.20;;;5.60;99.90;;;13.89;49.93;102261.81;4959077;28;20408;-72
2022/03/08 06:45:21;;;;;;;34.97;15.65;;;7.10;99.90;;;16.26;44.14;102277.88;4937984;28;20115;-73
2022/03/08 06:47:47;;;;;;;35.25;15.23;;;8.70;99.90;;;18.01;39.83;102295.91;4953350;28;20050;-71
2022/03/08 06:50:14;;;;;;;32.55;16.63;;;10.30;99.90;;;19.30;37.07;102311.91;4936168;28;20106;-73
2022/03/08 06:52:40;;;;;;;34.65;13.98;;;11.50;99.90;;;20.09;34.96;102343.75;4951243;28;20042;-72
2022/03/08 06:55:06;;;;;;;33.45;14.65;;;12.50;99.90;;;19.24;35.24;102371.88;4954344;28;20034;-73
2022/03/08 06:57:32;;;;;;;23.38;12.95;;;13.20;99.90;;;20.66;33.70;102380.34;4954738;28;20026;-72
2022/03/08 06:59:58;;;;;;;24.70;13.40;;;13.90;99.90;;;21.83;32.02;102383.44;4953671;28;20082;-72
2022/03/08 07:02:26;;;;;;;32.45;16.17;;;14.70;99.90;;;22.66;30.91;102431.41;4951349;28;20034;-73
2022/03/08 07:04:52;;;;;;;28.33;15.05;;;15.50;99.90;;;23.46;30.18;102445.28;4951780;28;20038;-73
2022/03/08 07:07:18;;;;;;;30.75;15.73;;;16.30;99.90;;;24.03;28.87;102461.69;4951853;28;20118;-72
2022/03/08 07:09:43;;;;;;;27.13;15.63;;;16.90;99.80;;;24.54;28.80;102496.34;4954399;28;20034;-74
2022/03/08 07:12:10;;;;;;;32.55;15.18;;;17.50;98.60;;;25.01;28.39;102502.50;4951046;28;20109;-74
2022/03/08 07:14:36;;;;;;;26.85;15.10;;;18.10;97.40;;;25.37;27.77;102514.00;4936961;28;20047;-71
2022/03/08 07:17:03;;;;;;;25.40;15.63;;;18.70;96.70;;;25.79;27.20;102519.56;4954442;28;20046;-73
2022/03/08 07:19:29;;;;;;;28.10;15.70;;;19.20;95.70;;;26.03;26.88;102538.25;4935597;28;20055;-72
2022/03/08 07:21:55;;;;;;;28.55;16.58;;;19.60;94.60;;;26.35;26.93;102556.25;4954049;28;20027;-71
2022/03/08 07:24:21;;;;;;;26.75;15.40;;;20.10;94.20;;;26.56;26.59;102556.28;4954667;28;20114;-73
2022/03/08 07:26:47;;;;;;;26.15;15.57;;;20.60;93.50;;;26.90;25.82;102567.75;4951431;28;20039;-73
2022/03/08 07:29:13;;;;;;;25.85;15.35;;;21.00;92.70;;;27.10;25.57;102571.38;4952382;28;20034;-73
2022/03/08 07:31:39;;;;;;;28.13;16.17;;;21.40;91.60;;;27.01;25.18;103045.28;4935587;28;20496;-73
2022/03/08 07:34:05;;;;;;;31.17;16.15;;;21.70;91.00;;;26.98;25.36;102619.28;4933882;28;20075;-73
2022/03/08 07:36:32;;;;;;;30.50;16.10;;;21.90;90.20;;;25.86;26.30;102619.75;4954220;28;20033;-74
2022/03/08 07:38:59;;;;;;;29.35;17.23;;;22.00;90.50;;;26.59;26.02;102623.59;4951728;28;20542;-73
2022/03/08 07:41:25;;;;;;;23.77;15.90;;;22.20;89.50;;;26.76;25.66;102623.00;4952769;28;20031;-73
2022/03/08 07:43:51;;;;;;;28.55;16.50;;;22.60;87.70;;;26.85;26.04;102625.91;4952048;28;20023;-73
2022/03/08 07:46:17;;;;;;;27.83;16.95;;;22.90;86.90;;;26.92;25.66;102621.66;4953811;28;20025;-73
2022/03/08 07:48:43;;;;;;;32.45;17.25;;;23.10;86.30;;;27.05;26.04;102635.81;4952887;28;20043;-73
2022/03/08 07:51:09;;;;;;;28.92;17.02;;;23.40;85.90;;;27.13;25.88;102633.31;4950616;28;20037;-73
2022/03/08 07:53:36;;;;;;;29.80;18.25;;;23.70;83.10;;;27.12;25.40;102660.47;4951870;28;20645;-73
2022/03/08 07:56:02;;;;;;;28.73;18.17;;;24.00;81.40;;;27.12;25.46;102563.16;4950434;28;20122;-73
2022/03/08 07:58:28;;;;;;;29.20;19.02;;;24.10;80.70;;;26.98;25.76;102500.34;4952746;28;20085;-73
2022/03/08 08:00:54;;;;;;;28.92;19.55;;;24.10;77.20;;;26.37;26.16;102589.38;4950609;28;20042;-73
2022/03/08 08:03:20;;;;;;;32.78;20.08;;;24.10;78.40;;;26.02;26.85;102711.13;4952104;28;20042;-73
2022/03/08 08:05:46;;;;;;;34.20;21.45;;;23.70;75.40;;;24.95;27.42;102645.81;4944142;28;20023;-73
2022/03/08 08:08:12;;;;;;;33.65;22.17;;;22.90;75.30;;;23.56;24.00;102872.94;4960020;28;20027;-73
2022/03/08 08:10:38;;;;;;;34.40;21.45;;;22.20;76.60;;;22.44;30.12;103092.31;4951247;28;20026;-73
2022/03/08 08:13:07;;;;;;;35.45;21.88;;;21.80;77.20;;;21.89;30.69;102719.09;4935193;28;20399;-74
2022/03/08 08:15:36;;;;;;;31.58;20.58;;;21.40;79.10;;;21.59;31.68;102692.38;4949501;28;20057;-73
2022/03/08 08:18:03;;;;;;;34.45;21.33;;;21.10;80.60;;;21.36;31.91;102634.84;4951552;28;20551;-74
2022/03/08 08:20:29;;;;;;;33.92;20.38;;;20.80;79.30;;;20.82;32.43;102664.00;4935999;28;20047;-74
2022/03/08 08:22:55;;;;;;;36.20;20.20;;;20.90;82.10;;;20.96;33.15;102679.25;4950688;28;20782;-74
2022/03/08 08:25:22;;;;;;;31.17;19.60;;;20.90;81.10;;;20.75;33.19;102674.22;4951204;28;20042;-74
2022/03/08 08:27:48;;;;;;;36.05;18.55;;;20.90;80.90;;;20.53;33.39;102642.47;4953322;28;20499;-74
2022/03/08 08:30:14;;;;;;;35.67;19.75;;;20.80;81.30;;;20.30;33.85;102657.16;4951184;28;20035;-74
2022/03/08 08:32:41;;;;;;;31.17;19.40;;;20.90;83.00;;;20.65;33.83;102673.91;4950016;28;20033;-74
2022/03/08 08:35:09;;;;;;;30.70;18.50;;;21.20;82.40;;;20.91;33.74;102663.47;4966629;28;20041;-73
2022/03/08 08:37:35;;;;;;;28.88;17.83;;;21.60;81.10;;;21.18;33.50;102654.72;4948812;28;20529;-74
2022/03/08 08:40:01;;;;;;;24.58;16.88;;;21.70;79.30;;;20.99;33.22;102671.91;4951930;28;20400;-74
2022/03/08 08:42:27;;;;;;;25.55;15.38;;;21.70;77.70;;;20.63;33.07;102674.97;4948315;28;20039;-74
2022/03/08 08:44:53;;;;;;;26.10;14.85;;;21.40;76.20;;;20.03;33.15;102683.69;4960105;28;20053;-74
2022/03/08 08:47:19;;;;;;;21.55;14.77;;;21.10;78.20;;;19.79;34.22;102672.53;4950080;28;20034;-74
2022/03/08 08:49:45;;;;;;;26.20;15.43;;;20.80;78.70;;;19.24;34.95;102662.94;4951748;28;20527;-74
2022/03/08 08:52:12;;;;;;;26.00;16.08;;;20.60;79.40;;;19.08;35.13;102680.72;4949133;28;20033;-75
2022/03/08 08:54:38;;;;;;;25.10;16.27;;;20.40;82.00;;;19.10;35.98;102670.84;4953090;28;20026;-75
2022/03/08 08:57:04;;;;;;;24.33;15.30;;;20.30;80.20;;;18.83;27.39;102673.97;4949141;28;20027;-74
2022/03/08 08:59:30;;;;;;;26.20;15.98;;;20.20;82.70;;;18.92;36.30;102665.50;4954239;28;20038;-74
2022/03/08 09:01:56;;;;;;;22.70;14.40;;;20.00;81.60;;;18.76;36.05;102653.84;4973520;28;20042;-74
2022/03/08 09:04:22;;;;;;;22.00;13.80;;;19.80;83.00;;;18.49;36.32;102664.97;4951327;28;20033;-74
2022/03/08 09:06:48;;;;;;;19.83;12.90;;;19.60;81.00;;;18.50;36.02;102669.34;4948480;28;20019;-74
2022/03/08 09:09:15;;;;;;;18.42;11.65;;;19.40;82.10;;;18.36;36.09;102661.19;4951136;28;20031;-74
2022/03/08 09:11:45;;;;;;;23.60;12.27;;;19.50;83.50;;;18.50;36.17;102647.16;4951648;28;20487;-74
2022/03/08 09:14:11;;;;;;;19.02;11.85;;;19.50;83.50;;;18.59;29.99;102639.53;4932519;28;20059;-74
2022/03/08 09:16:37;;;;;;;22.23;12.68;;;19.40;84.00;;;18.56;36.45;102637.03;4949121;28;20380;-75
2022/03/08 09:19:03;;;;;;;21.23;12.32;;;19.40;84.90;;;18.57;36.50;102614.72;4950325;28;21907;-74
2022/03/08 09:21:30;;;;;;;23.63;12.43;;;19.10;83.30;;;18.08;36.91;102613.63;4950527;28;20051;-75
2022/03/08 09:23:56;;;;;;;20.52;12.20;;;18.90;84.20;;;18.02;37.35;102604.16;4948522;28;20368;-75
2022/03/08 09:26:23;;;;;;;17.67;10.75;;;18.70;84.60;;;17.92;36.99;102589.53;4934237;28;20042;-75
2022/03/08 09:28:55;;;;;;;17.38;10.82;;;18.50;85.20;;;17.80;37.28;102581.16;4949996;28;20176;-75
2022/03/08 09:31:21;;;;;;;18.42;9.80;;;18.30;86.20;;;17.69;37.66;102583.47;4948381;28;20027;-75
2022/03/08 09:33:47;;;;;;;15.25;8.80;;;18.00;84.50;;;17.39;37.21;102586.63;4957996;28;20470;-75
2022/03/08 09:36:13;;;;;;;12.73;7.90;;;17.80;84.70;;;17.05;37.57;102586.41;4957919;28;20114;-75
2022/03/08 09:38:39;;;;;;;12.38;7.50;;;17.40;85.70;;;16.67;38.20;102595.06;4945343;28;20027;-75
2022/03/08 09:41:06;;;;;;;12.68;8.02;;;16.80;83.50;;;15.87;38.43;102597.47;4935142;28;20068;-75
2022/03/08 09:43:37;;;;;;;11.55;6.60;;;16.00;82.40;;;14.78;36.28;102602.31;4945703;28;20044;-75
2022/03/08 09:46:07;;;;;;;11.13;6.75;;;15.20;85.00;;;13.73;39.04;102596.84;4948599;28;20102;-75
2022/03/08 09:48:36;;;;;;;13.02;6.63;;;14.50;85.70;;;12.94;40.46;102579.66;4932478;28;20054;-75
2022/03/08 09:51:06;;;;;;;9.80;6.05;;;14.00;86.90;;;12.41;40.89;102569.56;4948138;28;20118;-75
2022/03/08 09:53:35;;;;;;;12.85;7.88;;;13.50;90.20;;;11.93;43.10;102555.78;4924431;28;20031;-76
2022/03/08 09:56:06;;;;;;;14.75;7.97;;;12.90;90.80;;;11.34;46.81;102556.13;4942975;28;20027;-75
2022/03/08 09:58:36;;;;;;;15.60;8.80;;;12.50;91.60;;;10.88;47.55;102540.34;4951496;28;20474;-76
2022/03/08 10:01:03;;;;;;;14.45;7.45;;;12.10;92.40;;;10.44;48.95;102549.03;4952841;28;20034;-76